Keith, Illinois
Current Conditions -  °F | °C
As of 1:55 AM on Friday 19 Dec 2014 (Local Time) from KFOA Reporting Station
Clear Clear  
Wind Chill: 26°   Ceiling: Unl
Heat Index: 31°   Visibility: 7mi
Dew Point: 27°   Wind: 5mph
Humidity: 85%   Direction: 340°NNW
Pressure: 30.29"   Gusts: NA
Location:  38.5816°N, 88.4678°W
Report Text: KFOA 190755Z AUTO 34004KT 7SM CLR M01/M03 A3029 RMK AO2 T10081030
Loading
Personal Weather Stations






























Interactive Weather Map New forecast layout! Learn more

10-Day Weather Forecast

Advertisements
Track Severe Weather on mobile